Penrith, Australia
Current Conditions -  °F | °C
As of 8:00 PM on Monday 22 Dec 2014 (Local Time) from YSRI Reporting Station
Clear Clear  
Wind Chill: 70°   Ceiling: Unl
Heat Index: 70°   Visibility: 6mi
Dew Point: 66°   Wind: 7mph
Humidity: 88%   Direction: 330°NNW
Pressure: 29.97"   Gusts: NA
Location:  33.74°S, 150.7°E
Report Text: YSRI 220900Z AUTO 33006KT 9999 // NCD 21/19 Q1015
Loading
Personal Weather Stations






























Interactive Weather Map New forecast layout! Learn more

10-Day Weather Forecast

Advertisements
Track Severe Weather on mobile